Staffordville, New Jersey
Current Conditions -  °F | °C
As of 7:15 AM on Sunday 23 Nov 2014 (Local Time) from KMJX Reporting Station
Overcast Overcast  
Wind Chill:   Ceiling: 11000
Heat Index:   Visibility: 10mi
Dew Point: -6°   Wind: 3mph
Humidity: 42%   Direction: 230°SW
Pressure: 30.23"   Gusts: NA
Location:  39.6605°N, 74.2864°W
Report Text: KMJX 231215Z AUTO 23003KT 10SM OVC110 06/M06 A3023 RMK AO1
Loading
Personal Weather Stations






























Interactive Weather Map New forecast layout! Learn more

10-Day Weather Forecast

Advertisements
Track Severe Weather on mobile